sensor_id;sensor_type;location;lat;lon;timestamp;temperature;humidity
80560;DHT22;70065;42.700;23.316;2023-08-06T00:02:16;33.40;31.10
80560;DHT22;70065;42.700;23.316;2023-08-06T00:04:42;33.40;30.90
80560;DHT22;70065;42.700;23.316;2023-08-06T00:07:07;33.40;31.50
80560;DHT22;70065;42.700;23.316;2023-08-06T00:09:33;33.40;31.20
80560;DHT22;70065;42.700;23.316;2023-08-06T00:11:59;33.40;31.00
80560;DHT22;70065;42.700;23.316;2023-08-06T00:14:24;33.40;31.20
80560;DHT22;70065;42.700;23.316;2023-08-06T00:16:50;33.40;31.10
80560;DHT22;70065;42.700;23.316;2023-08-06T00:19:16;33.40;31.20
80560;DHT22;70065;42.700;23.316;2023-08-06T00:21:42;33.40;31.30
80560;DHT22;70065;42.700;23.316;2023-08-06T00:24:08;33.40;31.20
80560;DHT22;70065;42.700;23.316;2023-08-06T00:26:34;33.40;31.20
80560;DHT22;70065;42.700;23.316;2023-08-06T00:29:00;33.30;31.20
80560;DHT22;70065;42.700;23.316;2023-08-06T00:31:25;33.40;31.30
80560;DHT22;70065;42.700;23.316;2023-08-06T00:33:51;33.30;31.30
80560;DHT22;70065;42.700;23.316;2023-08-06T00:36:17;33.40;31.30
80560;DHT22;70065;42.700;23.316;2023-08-06T00:38:42;33.40;31.40
80560;DHT22;70065;42.700;23.316;2023-08-06T00:41:08;33.30;31.20
80560;DHT22;70065;42.700;23.316;2023-08-06T00:43:34;33.30;31.20
80560;DHT22;70065;42.700;23.316;2023-08-06T00:46:00;33.30;31.30
80560;DHT22;70065;42.700;23.316;2023-08-06T00:48:26;33.30;31.30
80560;DHT22;70065;42.700;23.316;2023-08-06T00:50:53;33.30;31.30
80560;DHT22;70065;42.700;23.316;2023-08-06T00:53:19;33.30;31.40
80560;DHT22;70065;42.700;23.316;2023-08-06T00:55:45;33.30;31.20
80560;DHT22;70065;42.700;23.316;2023-08-06T00:58:12;33.30;31.20
80560;DHT22;70065;42.700;23.316;2023-08-06T01:00:43;33.30;31.20
80560;DHT22;70065;42.700;23.316;2023-08-06T01:03:09;33.30;31.30
80560;DHT22;70065;42.700;23.316;2023-08-06T01:05:34;33.20;31.20
80560;DHT22;70065;42.700;23.316;2023-08-06T01:08:35;33.20;31.40
80560;DHT22;70065;42.700;23.316;2023-08-06T01:11:08;33.20;31.30
80560;DHT22;70065;42.700;23.316;2023-08-06T01:13:53;33.20;32.30
80560;DHT22;70065;42.700;23.316;2023-08-06T01:16:20;33.30;31.50
80560;DHT22;70065;42.700;23.316;2023-08-06T01:18:48;33.20;31.50
80560;DHT22;70065;42.700;23.316;2023-08-06T01:21:19;33.20;31.40
80560;DHT22;70065;42.700;23.316;2023-08-06T01:23:47;33.20;31.50
80560;DHT22;70065;42.700;23.316;2023-08-06T01:26:55;33.20;31.60
80560;DHT22;70065;42.700;23.316;2023-08-06T01:30:13;33.20;31.60
80560;DHT22;70065;42.700;23.316;2023-08-06T01:32:59;33.20;31.70
80560;DHT22;70065;42.700;23.316;2023-08-06T01:38:18;33.10;31.70
80560;DHT22;70065;42.700;23.316;2023-08-06T01:40:44;33.10;31.70
80560;DHT22;70065;42.700;23.316;2023-08-06T01:43:10;33.10;31.70
80560;DHT22;70065;42.700;23.316;2023-08-06T01:45:36;33.20;31.80
80560;DHT22;70065;42.700;23.316;2023-08-06T01:48:01;33.10;31.70
80560;DHT22;70065;42.700;23.316;2023-08-06T01:50:28;33.10;31.80
80560;DHT22;70065;42.700;23.316;2023-08-06T01:52:55;33.10;31.70
80560;DHT22;70065;42.700;23.316;2023-08-06T01:55:21;33.10;31.80
80560;DHT22;70065;42.700;23.316;2023-08-06T01:57:47;33.10;31.80
80560;DHT22;70065;42.700;23.316;2023-08-06T02:00:12;33.10;31.80
80560;DHT22;70065;42.700;23.316;2023-08-06T02:02:39;33.10;31.80
80560;DHT22;70065;42.700;23.316;2023-08-06T02:05:06;33.10;31.90
80560;DHT22;70065;42.700;23.316;2023-08-06T02:07:32;33.10;31.90
80560;DHT22;70065;42.700;23.316;2023-08-06T02:09:58;33.10;31.90
80560;DHT22;70065;42.700;23.316;2023-08-06T02:12:24;33.10;31.90
80560;DHT22;70065;42.700;23.316;2023-08-06T02:14:49;33.10;31.90
80560;DHT22;70065;42.700;23.316;2023-08-06T02:17:15;33.10;31.90
80560;DHT22;70065;42.700;23.316;2023-08-06T02:19:41;33.10;31.90
80560;DHT22;70065;42.700;23.316;2023-08-06T02:22:08;33.10;32.00
80560;DHT22;70065;42.700;23.316;2023-08-06T02:24:34;33.10;32.00
80560;DHT22;70065;42.700;23.316;2023-08-06T02:27:00;33.10;32.00
80560;DHT22;70065;42.700;23.316;2023-08-06T02:29:26;33.00;32.00
80560;DHT22;70065;42.700;23.316;2023-08-06T02:31:52;33.10;32.00
80560;DHT22;70065;42.700;23.316;2023-08-06T02:34:18;33.10;32.10
80560;DHT22;70065;42.700;23.316;2023-08-06T02:36:43;33.10;32.00
80560;DHT22;70065;42.700;23.316;2023-08-06T02:39:09;33.10;32.10
80560;DHT22;70065;42.700;23.316;2023-08-06T02:41:35;33.10;32.10
80560;DHT22;70065;42.700;23.316;2023-08-06T02:44:00;33.00;32.10
80560;DHT22;70065;42.700;23.316;2023-08-06T02:46:26;33.00;32.10
80560;DHT22;70065;42.700;23.316;2023-08-06T02:48:52;33.10;32.20
80560;DHT22;70065;42.700;23.316;2023-08-06T02:51:17;33.10;32.20
80560;DHT22;70065;42.700;23.316;2023-08-06T02:53:43;33.00;32.20
80560;DHT22;70065;42.700;23.316;2023-08-06T02:56:09;33.00;32.20
80560;DHT22;70065;42.700;23.316;2023-08-06T02:58:34;33.00;32.20
80560;DHT22;70065;42.700;23.316;2023-08-06T03:01:05;33.00;32.20
80560;DHT22;70065;42.700;23.316;2023-08-06T03:03:33;33.00;32.20
80560;DHT22;70065;42.700;23.316;2023-08-06T03:05:59;33.00;32.20
80560;DHT22;70065;42.700;23.316;2023-08-06T03:08:25;33.00;32.20
80560;DHT22;70065;42.700;23.316;2023-08-06T03:10:51;33.00;32.30
80560;DHT22;70065;42.700;23.316;2023-08-06T03:13:18;33.00;32.30
80560;DHT22;70065;42.700;23.316;2023-08-06T03:15:55;32.90;32.30
80560;DHT22;70065;42.700;23.316;2023-08-06T03:18:21;33.00;32.40
80560;DHT22;70065;42.700;23.316;2023-08-06T03:20:47;32.90;32.30
80560;DHT22;70065;42.700;23.316;2023-08-06T03:23:22;32.90;32.40
80560;DHT22;70065;42.700;23.316;2023-08-06T03:25:47;32.90;32.40
80560;DHT22;70065;42.700;23.316;2023-08-06T03:28:13;32.90;32.40
80560;DHT22;70065;42.700;23.316;2023-08-06T03:30:39;32.90;32.50
80560;DHT22;70065;42.700;23.316;2023-08-06T03:33:07;32.90;32.50
80560;DHT22;70065;42.700;23.316;2023-08-06T03:35:32;32.90;32.50
80560;DHT22;70065;42.700;23.316;2023-08-06T03:37:58;32.90;32.50
80560;DHT22;70065;42.700;23.316;2023-08-06T03:40:24;32.90;32.50
80560;DHT22;70065;42.700;23.316;2023-08-06T03:42:50;32.90;32.60
80560;DHT22;70065;42.700;23.316;2023-08-06T03:45:15;32.90;32.60
80560;DHT22;70065;42.700;23.316;2023-08-06T03:47:41;32.90;32.60
80560;DHT22;70065;42.700;23.316;2023-08-06T03:50:07;32.90;32.60
80560;DHT22;70065;42.700;23.316;2023-08-06T03:52:33;32.90;32.60
80560;DHT22;70065;42.700;23.316;2023-08-06T03:54:58;32.90;32.60
80560;DHT22;70065;42.700;23.316;2023-08-06T03:57:24;32.90;32.70
80560;DHT22;70065;42.700;23.316;2023-08-06T03:59:50;32.90;32.70
80560;DHT22;70065;42.700;23.316;2023-08-06T04:02:15;32.90;32.70
80560;DHT22;70065;42.700;23.316;2023-08-06T04:04:41;32.90;32.70
80560;DHT22;70065;42.700;23.316;2023-08-06T04:07:07;32.90;32.70
80560;DHT22;70065;42.700;23.316;2023-08-06T04:09:34;32.90;32.70
80560;DHT22;70065;42.700;23.316;2023-08-06T04:12:00;32.90;32.70
80560;DHT22;70065;42.700;23.316;2023-08-06T04:14:28;32.90;32.70
80560;DHT22;70065;42.700;23.316;2023-08-06T04:16:53;32.90;32.80
80560;DHT22;70065;42.700;23.316;2023-08-06T04:19:19;32.90;32.80
80560;DHT22;70065;42.700;23.316;2023-08-06T04:21:45;32.90;32.70
80560;DHT22;70065;42.700;23.316;2023-08-06T04:24:11;32.90;32.70
80560;DHT22;70065;42.700;23.316;2023-08-06T04:26:36;32.90;32.70
80560;DHT22;70065;42.700;23.316;2023-08-06T04:29:02;32.90;32.70
80560;DHT22;70065;42.700;23.316;2023-08-06T04:31:31;32.90;32.70
80560;DHT22;70065;42.700;23.316;2023-08-06T04:33:57;32.90;32.60
80560;DHT22;70065;42.700;23.316;2023-08-06T04:36:24;33.00;32.60
80560;DHT22;70065;42.700;23.316;2023-08-06T04:38:58;33.00;32.60
80560;DHT22;70065;42.700;23.316;2023-08-06T04:41:24;33.00;32.50
80560;DHT22;70065;42.700;23.316;2023-08-06T04:43:50;33.00;32.60
80560;DHT22;70065;42.700;23.316;2023-08-06T04:46:15;33.10;32.60
80560;DHT22;70065;42.700;23.316;2023-08-06T04:48:41;33.10;32.50
80560;DHT22;70065;42.700;23.316;2023-08-06T04:51:07;33.10;32.50
80560;DHT22;70065;42.700;23.316;2023-08-06T04:53:33;33.10;32.40
80560;DHT22;70065;42.700;23.316;2023-08-06T04:55:59;33.20;32.40
80560;DHT22;70065;42.700;23.316;2023-08-06T04:58:27;33.20;32.20
80560;DHT22;70065;42.700;23.316;2023-08-06T05:00:53;33.30;32.30
80560;DHT22;70065;42.700;23.316;2023-08-06T05:05:47;33.50;32.00
80560;DHT22;70065;42.700;23.316;2023-08-06T05:08:16;34.00;31.50
80560;DHT22;70065;42.700;23.316;2023-08-06T05:10:43;34.70;30.60
80560;DHT22;70065;42.700;23.316;2023-08-06T05:13:09;35.50;29.70
80560;DHT22;70065;42.700;23.316;2023-08-06T05:15:35;36.50;28.80
80560;DHT22;70065;42.700;23.316;2023-08-06T05:18:01;37.60;27.70
80560;DHT22;70065;42.700;23.316;2023-08-06T05:20:27;38.90;26.60
80560;DHT22;70065;42.700;23.316;2023-08-06T05:22:52;40.30;25.30
80560;DHT22;70065;42.700;23.316;2023-08-06T05:25:20;41.80;24.10
80560;DHT22;70065;42.700;23.316;2023-08-06T05:27:48;42.50;23.20
80560;DHT22;70065;42.700;23.316;2023-08-06T05:30:13;42.40;23.00
80560;DHT22;70065;42.700;23.316;2023-08-06T05:32:39;42.10;23.00
80560;DHT22;70065;42.700;23.316;2023-08-06T05:35:05;41.50;23.40
80560;DHT22;70065;42.700;23.316;2023-08-06T05:37:31;41.80;23.30
80560;DHT22;70065;42.700;23.316;2023-08-06T05:39:57;42.70;22.60
80560;DHT22;70065;42.700;23.316;2023-08-06T05:42:23;44.00;21.90
80560;DHT22;70065;42.700;23.316;2023-08-06T05:44:48;45.10;21.00
80560;DHT22;70065;42.700;23.316;2023-08-06T05:47:14;46.10;20.40
80560;DHT22;70065;42.700;23.316;2023-08-06T05:49:45;46.40;20.00
80560;DHT22;70065;42.700;23.316;2023-08-06T05:52:11;46.40;19.80
80560;DHT22;70065;42.700;23.316;2023-08-06T05:54:37;46.20;19.90
80560;DHT22;70065;42.700;23.316;2023-08-06T05:57:03;46.30;19.80
80560;DHT22;70065;42.700;23.316;2023-08-06T05:59:29;46.50;19.60
80560;DHT22;70065;42.700;23.316;2023-08-06T06:01:54;47.30;19.20
80560;DHT22;70065;42.700;23.316;2023-08-06T06:04:20;48.10;18.80
80560;DHT22;70065;42.700;23.316;2023-08-06T06:06:46;48.80;18.30
80560;DHT22;70065;42.700;23.316;2023-08-06T06:09:12;49.50;17.90
80560;DHT22;70065;42.700;23.316;2023-08-06T06:11:38;50.00;17.50
80560;DHT22;70065;42.700;23.316;2023-08-06T06:14:03;50.40;17.30
80560;DHT22;70065;42.700;23.316;2023-08-06T06:16:29;50.60;17.00
80560;DHT22;70065;42.700;23.316;2023-08-06T06:18:56;50.80;16.90
80560;DHT22;70065;42.700;23.316;2023-08-06T06:21:26;51.00;16.70
80560;DHT22;70065;42.700;23.316;2023-08-06T06:23:54;51.30;16.50
80560;DHT22;70065;42.700;23.316;2023-08-06T06:26:20;51.30;16.60
80560;DHT22;70065;42.700;23.316;2023-08-06T06:28:45;51.30;16.30
80560;DHT22;70065;42.700;23.316;2023-08-06T06:31:11;51.50;16.40
80560;DHT22;70065;42.700;23.316;2023-08-06T06:33:36;51.10;16.40
80560;DHT22;70065;42.700;23.316;2023-08-06T06:36:02;51.00;16.60
80560;DHT22;70065;42.700;23.316;2023-08-06T06:38:33;51.00;16.60
80560;DHT22;70065;42.700;23.316;2023-08-06T06:41:00;50.80;16.50
80560;DHT22;70065;42.700;23.316;2023-08-06T06:43:27;50.60;16.60
80560;DHT22;70065;42.700;23.316;2023-08-06T06:45:56;49.90;16.90
80560;DHT22;70065;42.700;23.316;2023-08-06T06:48:28;49.00;17.40
80560;DHT22;70065;42.700;23.316;2023-08-06T06:50:54;48.20;17.90
80560;DHT22;70065;42.700;23.316;2023-08-06T06:53:22;47.40;18.30
80560;DHT22;70065;42.700;23.316;2023-08-06T06:55:54;46.50;18.90
80560;DHT22;70065;42.700;23.316;2023-08-06T06:58:19;45.50;19.50
80560;DHT22;70065;42.700;23.316;2023-08-06T07:00:47;44.70;20.10
80560;DHT22;70065;42.700;23.316;2023-08-06T07:03:16;44.00;20.60
80560;DHT22;70065;42.700;23.316;2023-08-06T07:05:44;43.70;21.00
80560;DHT22;70065;42.700;23.316;2023-08-06T07:08:10;43.60;21.20
80560;DHT22;70065;42.700;23.316;2023-08-06T07:10:37;43.60;21.20
80560;DHT22;70065;42.700;23.316;2023-08-06T07:13:03;43.70;21.20
80560;DHT22;70065;42.700;23.316;2023-08-06T07:15:28;43.50;21.30
80560;DHT22;70065;42.700;23.316;2023-08-06T07:17:54;43.20;21.50
80560;DHT22;70065;42.700;23.316;2023-08-06T07:20:20;43.30;21.60
80560;DHT22;70065;42.700;23.316;2023-08-06T07:22:46;43.60;21.40
80560;DHT22;70065;42.700;23.316;2023-08-06T07:25:12;44.00;21.10
80560;DHT22;70065;42.700;23.316;2023-08-06T07:27:38;44.50;20.80
80560;DHT22;70065;42.700;23.316;2023-08-06T07:30:04;45.00;20.50
80560;DHT22;70065;42.700;23.316;2023-08-06T07:32:31;45.50;20.10
80560;DHT22;70065;42.700;23.316;2023-08-06T07:34:57;45.70;19.90
80560;DHT22;70065;42.700;23.316;2023-08-06T07:37:28;45.80;19.80
80560;DHT22;70065;42.700;23.316;2023-08-06T07:39:57;45.70;19.80
80560;DHT22;70065;42.700;23.316;2023-08-06T07:42:23;45.60;19.90
80560;DHT22;70065;42.700;23.316;2023-08-06T07:44:56;45.50;20.00
80560;DHT22;70065;42.700;23.316;2023-08-06T07:47:22;45.40;20.10
80560;DHT22;70065;42.700;23.316;2023-08-06T07:49:48;45.40;20.10
80560;DHT22;70065;42.700;23.316;2023-08-06T07:52:14;45.70;20.00
80560;DHT22;70065;42.700;23.316;2023-08-06T07:54:39;45.90;19.80
80560;DHT22;70065;42.700;23.316;2023-08-06T07:57:05;45.60;19.90
80560;DHT22;70065;42.700;23.316;2023-08-06T07:59:31;45.00;20.30
80560;DHT22;70065;42.700;23.316;2023-08-06T08:01:58;44.20;21.50
80560;DHT22;70065;42.700;23.316;2023-08-06T08:04:24;43.50;21.40
80560;DHT22;70065;42.700;23.316;2023-08-06T08:06:50;42.80;21.80
80560;DHT22;70065;42.700;23.316;2023-08-06T08:09:16;42.40;22.20
80560;DHT22;70065;42.700;23.316;2023-08-06T08:11:42;42.60;22.20
80560;DHT22;70065;42.700;23.316;2023-08-06T08:14:08;43.70;21.50
80560;DHT22;70065;42.700;23.316;2023-08-06T08:16:36;44.10;20.90
80560;DHT22;70065;42.700;23.316;2023-08-06T08:19:02;44.30;20.90
80560;DHT22;70065;42.700;23.316;2023-08-06T08:21:29;43.80;21.20
80560;DHT22;70065;42.700;23.316;2023-08-06T08:23:55;44.00;21.00
80560;DHT22;70065;42.700;23.316;2023-08-06T08:26:21;44.30;21.00
80560;DHT22;70065;42.700;23.316;2023-08-06T08:28:46;44.20;20.90
80560;DHT22;70065;42.700;23.316;2023-08-06T08:31:17;44.60;20.70
80560;DHT22;70065;42.700;23.316;2023-08-06T08:33:43;45.00;20.40
80560;DHT22;70065;42.700;23.316;2023-08-06T08:36:08;45.90;19.90
80560;DHT22;70065;42.700;23.316;2023-08-06T08:38:35;46.30;19.50
80560;DHT22;70065;42.700;23.316;2023-08-06T08:41:02;46.50;19.40
80560;DHT22;70065;42.700;23.316;2023-08-06T08:43:32;46.50;19.30
80560;DHT22;70065;42.700;23.316;2023-08-06T08:45:58;46.30;19.50
80560;DHT22;70065;42.700;23.316;2023-08-06T08:48:25;46.30;19.60
80560;DHT22;70065;42.700;23.316;2023-08-06T08:50:52;46.10;19.70
80560;DHT22;70065;42.700;23.316;2023-08-06T08:53:19;45.70;20.00
80560;DHT22;70065;42.700;23.316;2023-08-06T08:55:50;45.40;20.20
80560;DHT22;70065;42.700;23.316;2023-08-06T08:58:16;44.90;20.50
80560;DHT22;70065;42.700;23.316;2023-08-06T09:00:42;44.50;20.80
80560;DHT22;70065;42.700;23.316;2023-08-06T09:03:09;44.10;21.10
80560;DHT22;70065;42.700;23.316;2023-08-06T09:05:36;43.60;21.40
80560;DHT22;70065;42.700;23.316;2023-08-06T09:08:07;43.20;21.70
80560;DHT22;70065;42.700;23.316;2023-08-06T09:10:36;42.80;22.00
80560;DHT22;70065;42.700;23.316;2023-08-06T09:13:03;42.50;22.20
80560;DHT22;70065;42.700;23.316;2023-08-06T09:15:29;42.20;22.40
80560;DHT22;70065;42.700;23.316;2023-08-06T09:17:56;42.00;22.70
80560;DHT22;70065;42.700;23.316;2023-08-06T09:20:21;41.80;22.80
80560;DHT22;70065;42.700;23.316;2023-08-06T09:22:47;41.60;23.00
80560;DHT22;70065;42.700;23.316;2023-08-06T09:25:24;41.40;23.20
80560;DHT22;70065;42.700;23.316;2023-08-06T09:27:52;41.30;23.30
80560;DHT22;70065;42.700;23.316;2023-08-06T09:30:32;41.10;23.50
80560;DHT22;70065;42.700;23.316;2023-08-06T09:32:58;40.90;23.60
80560;DHT22;70065;42.700;23.316;2023-08-06T09:35:27;40.80;23.80
80560;DHT22;70065;42.700;23.316;2023-08-06T09:37:55;40.50;23.90
80560;DHT22;70065;42.700;23.316;2023-08-06T09:40:31;40.30;24.20
80560;DHT22;70065;42.700;23.316;2023-08-06T09:42:58;40.20;24.30
80560;DHT22;70065;42.700;23.316;2023-08-06T09:45:31;40.00;24.50
80560;DHT22;70065;42.700;23.316;2023-08-06T09:48:04;39.80;25.40
80560;DHT22;70065;42.700;23.316;2023-08-06T09:50:31;39.70;24.80
80560;DHT22;70065;42.700;23.316;2023-08-06T09:52:58;39.70;24.90
80560;DHT22;70065;42.700;23.316;2023-08-06T09:55:25;39.60;24.90
80560;DHT22;70065;42.700;23.316;2023-08-06T09:57:54;39.50;25.00
80560;DHT22;70065;42.700;23.316;2023-08-06T10:00:21;39.40;25.00
80560;DHT22;70065;42.700;23.316;2023-08-06T10:02:47;39.30;25.10
80560;DHT22;70065;42.700;23.316;2023-08-06T10:05:15;39.20;25.20
80560;DHT22;70065;42.700;23.316;2023-08-06T10:07:43;39.10;25.30
80560;DHT22;70065;42.700;23.316;2023-08-06T10:10:10;39.00;25.30
80560;DHT22;70065;42.700;23.316;2023-08-06T10:12:42;38.90;25.50
80560;DHT22;70065;42.700;23.316;2023-08-06T10:15:10;38.90;25.60
80560;DHT22;70065;42.700;23.316;2023-08-06T10:17:37;38.70;25.70
80560;DHT22;70065;42.700;23.316;2023-08-06T10:20:08;38.60;25.90
80560;DHT22;70065;42.700;23.316;2023-08-06T10:22:33;38.50;25.90
80560;DHT22;70065;42.700;23.316;2023-08-06T10:25:01;38.50;26.00
80560;DHT22;70065;42.700;23.316;2023-08-06T10:27:30;38.50;26.00
80560;DHT22;70065;42.700;23.316;2023-08-06T10:32:53;38.50;26.00
80560;DHT22;70065;42.700;23.316;2023-08-06T10:38:11;38.40;26.10
80560;DHT22;70065;42.700;23.316;2023-08-06T10:43:41;38.20;26.10
80560;DHT22;70065;42.700;23.316;2023-08-06T10:46:27;38.20;26.10
80560;DHT22;70065;42.700;23.316;2023-08-06T10:48:53;38.10;26.20
80560;DHT22;70065;42.700;23.316;2023-08-06T10:51:18;38.10;26.30
80560;DHT22;70065;42.700;23.316;2023-08-06T10:53:47;38.10;26.40
80560;DHT22;70065;42.700;23.316;2023-08-06T10:56:18;38.00;26.40
80560;DHT22;70065;42.700;23.316;2023-08-06T10:58:46;37.90;26.40
80560;DHT22;70065;42.700;23.316;2023-08-06T11:01:13;37.80;26.50
80560;DHT22;70065;42.700;23.316;2023-08-06T11:03:39;37.80;26.60
80560;DHT22;70065;42.700;23.316;2023-08-06T11:06:08;37.70;26.60
80560;DHT22;70065;42.700;23.316;2023-08-06T11:08:36;37.70;26.60
80560;DHT22;70065;42.700;23.316;2023-08-06T11:11:14;37.70;26.70
80560;DHT22;70065;42.700;23.316;2023-08-06T11:13:45;37.70;27.40
80560;DHT22;70065;42.700;23.316;2023-08-06T11:16:18;37.70;26.70
80560;DHT22;70065;42.700;23.316;2023-08-06T11:18:44;37.70;26.70
80560;DHT22;70065;42.700;23.316;2023-08-06T11:21:12;37.70;26.70
80560;DHT22;70065;42.700;23.316;2023-08-06T11:23:39;37.70;26.70
80560;DHT22;70065;42.700;23.316;2023-08-06T11:26:07;37.60;26.70
80560;DHT22;70065;42.700;23.316;2023-08-06T11:28:33;37.60;26.80
80560;DHT22;70065;42.700;23.316;2023-08-06T11:30:59;37.50;26.90
80560;DHT22;70065;42.700;23.316;2023-08-06T11:33:28;37.40;27.00
80560;DHT22;70065;42.700;23.316;2023-08-06T11:35:58;37.30;27.00
80560;DHT22;70065;42.700;23.316;2023-08-06T11:38:28;37.30;27.10
80560;DHT22;70065;42.700;23.316;2023-08-06T11:40:56;37.30;27.10
80560;DHT22;70065;42.700;23.316;2023-08-06T11:43:22;37.30;27.10
80560;DHT22;70065;42.700;23.316;2023-08-06T11:45:56;37.30;27.10
80560;DHT22;70065;42.700;23.316;2023-08-06T11:48:21;37.40;27.00
80560;DHT22;70065;42.700;23.316;2023-08-06T11:50:47;37.50;27.00
80560;DHT22;70065;42.700;23.316;2023-08-06T11:53:14;37.50;26.90
80560;DHT22;70065;42.700;23.316;2023-08-06T11:55:40;37.50;26.90
80560;DHT22;70065;42.700;23.316;2023-08-06T11:58:09;37.50;26.90
80560;DHT22;70065;42.700;23.316;2023-08-06T12:00:36;37.50;26.90
80560;DHT22;70065;42.700;23.316;2023-08-06T12:03:04;37.50;26.90
80560;DHT22;70065;42.700;23.316;2023-08-06T12:05:31;37.40;26.90
80560;DHT22;70065;42.700;23.316;2023-08-06T12:07:59;37.40;26.90
80560;DHT22;70065;42.700;23.316;2023-08-06T12:10:27;37.30;27.00
80560;DHT22;70065;42.700;23.316;2023-08-06T12:12:54;37.20;27.10
80560;DHT22;70065;42.700;23.316;2023-08-06T12:15:20;37.20;27.20
80560;DHT22;70065;42.700;23.316;2023-08-06T12:17:58;37.20;27.20
80560;DHT22;70065;42.700;23.316;2023-08-06T12:20:23;37.10;27.20
80560;DHT22;70065;42.700;23.316;2023-08-06T12:22:49;36.90;27.10
80560;DHT22;70065;42.700;23.316;2023-08-06T12:25:15;36.80;27.40
80560;DHT22;70065;42.700;23.316;2023-08-06T12:27:44;36.80;27.50
80560;DHT22;70065;42.700;23.316;2023-08-06T12:30:12;36.80;27.50
80560;DHT22;70065;42.700;23.316;2023-08-06T12:32:38;36.70;27.60
80560;DHT22;70065;42.700;23.316;2023-08-06T12:35:05;36.70;27.60
80560;DHT22;70065;42.700;23.316;2023-08-06T12:37:35;36.70;27.60
80560;DHT22;70065;42.700;23.316;2023-08-06T12:40:01;36.70;27.60
80560;DHT22;70065;42.700;23.316;2023-08-06T12:42:27;36.60;27.60
80560;DHT22;70065;42.700;23.316;2023-08-06T12:44:53;36.60;27.60
80560;DHT22;70065;42.700;23.316;2023-08-06T12:47:19;36.60;27.70
80560;DHT22;70065;42.700;23.316;2023-08-06T12:49:45;36.60;27.70
80560;DHT22;70065;42.700;23.316;2023-08-06T12:52:13;36.60;27.70
80560;DHT22;70065;42.700;23.316;2023-08-06T12:54:41;36.60;27.60
80560;DHT22;70065;42.700;23.316;2023-08-06T12:57:07;36.60;27.70
80560;DHT22;70065;42.700;23.316;2023-08-06T12:59:33;36.50;27.70
80560;DHT22;70065;42.700;23.316;2023-08-06T13:02:00;36.50;27.80
80560;DHT22;70065;42.700;23.316;2023-08-06T13:04:26;36.40;27.80
80560;DHT22;70065;42.700;23.316;2023-08-06T13:06:51;36.40;27.90
80560;DHT22;70065;42.700;23.316;2023-08-06T13:09:17;36.40;27.90
80560;DHT22;70065;42.700;23.316;2023-08-06T13:11:50;36.40;27.90
80560;DHT22;70065;42.700;23.316;2023-08-06T13:14:19;36.40;27.90
80560;DHT22;70065;42.700;23.316;2023-08-06T13:16:46;36.40;27.90
80560;DHT22;70065;42.700;23.316;2023-08-06T13:19:12;36.40;27.60
80560;DHT22;70065;42.700;23.316;2023-08-06T13:24:08;36.50;27.70
80560;DHT22;70065;42.700;23.316;2023-08-06T13:26:34;36.50;27.70
80560;DHT22;70065;42.700;23.316;2023-08-06T13:29:00;36.50;27.60
80560;DHT22;70065;42.700;23.316;2023-08-06T13:31:26;36.50;27.60
80560;DHT22;70065;42.700;23.316;2023-08-06T13:33:56;36.50;27.80
80560;DHT22;70065;42.700;23.316;2023-08-06T13:36:25;36.50;27.60
80560;DHT22;70065;42.700;23.316;2023-08-06T13:38:51;36.50;27.80
80560;DHT22;70065;42.700;23.316;2023-08-06T13:41:17;36.40;27.80
80560;DHT22;70065;42.700;23.316;2023-08-06T13:43:43;36.50;27.80
80560;DHT22;70065;42.700;23.316;2023-08-06T13:46:20;36.50;27.80
80560;DHT22;70065;42.700;23.316;2023-08-06T13:48:46;36.60;27.70
80560;DHT22;70065;42.700;23.316;2023-08-06T13:51:14;36.60;27.60
80560;DHT22;70065;42.700;23.316;2023-08-06T13:53:40;36.80;27.60
80560;DHT22;70065;42.700;23.316;2023-08-06T13:56:07;36.90;27.50
80560;DHT22;70065;42.700;23.316;2023-08-06T13:58:33;37.00;27.40
80560;DHT22;70065;42.700;23.316;2023-08-06T14:00:59;37.10;27.20
80560;DHT22;70065;42.700;23.316;2023-08-06T14:03:25;37.10;27.20
80560;DHT22;70065;42.700;23.316;2023-08-06T14:05:51;37.10;27.20
80560;DHT22;70065;42.700;23.316;2023-08-06T14:08:17;37.10;27.20
80560;DHT22;70065;42.700;23.316;2023-08-06T14:10:44;37.00;27.20
80560;DHT22;70065;42.700;23.316;2023-08-06T14:13:10;37.00;27.30
80560;DHT22;70065;42.700;23.316;2023-08-06T14:15:36;36.90;27.30
80560;DHT22;70065;42.700;23.316;2023-08-06T14:18:06;36.80;27.40
80560;DHT22;70065;42.700;23.316;2023-08-06T14:20:34;36.70;27.50
80560;DHT22;70065;42.700;23.316;2023-08-06T14:23:06;36.60;27.50
80560;DHT22;70065;42.700;23.316;2023-08-06T14:25:31;36.60;27.60
80560;DHT22;70065;42.700;23.316;2023-08-06T14:27:59;36.60;27.60
80560;DHT22;70065;42.700;23.316;2023-08-06T14:30:25;36.60;27.60
80560;DHT22;70065;42.700;23.316;2023-08-06T14:32:51;36.50;27.70
80560;DHT22;70065;42.700;23.316;2023-08-06T14:35:17;36.40;27.70
80560;DHT22;70065;42.700;23.316;2023-08-06T14:37:42;36.40;27.80
80560;DHT22;70065;42.700;23.316;2023-08-06T14:40:10;36.30;28.60
80560;DHT22;70065;42.700;23.316;2023-08-06T14:42:36;36.30;27.90
80560;DHT22;70065;42.700;23.316;2023-08-06T14:45:02;36.30;27.70
80560;DHT22;70065;42.700;23.316;2023-08-06T14:47:30;36.30;27.60
80560;DHT22;70065;42.700;23.316;2023-08-06T14:49:57;36.30;27.80
80560;DHT22;70065;42.700;23.316;2023-08-06T14:52:22;36.30;27.80
80560;DHT22;70065;42.700;23.316;2023-08-06T14:54:48;36.30;27.90
80560;DHT22;70065;42.700;23.316;2023-08-06T14:57:17;36.20;27.90
80560;DHT22;70065;42.700;23.316;2023-08-06T14:59:43;36.20;28.10
80560;DHT22;70065;42.700;23.316;2023-08-06T15:02:09;36.10;28.00
80560;DHT22;70065;42.700;23.316;2023-08-06T15:04:37;36.20;28.00
80560;DHT22;70065;42.700;23.316;2023-08-06T15:07:04;36.30;28.00
80560;DHT22;70065;42.700;23.316;2023-08-06T15:09:32;36.30;28.70
80560;DHT22;70065;42.700;23.316;2023-08-06T15:11:58;36.30;27.90
80560;DHT22;70065;42.700;23.316;2023-08-06T15:14:25;36.30;27.90
80560;DHT22;70065;42.700;23.316;2023-08-06T15:16:51;36.30;27.90
80560;DHT22;70065;42.700;23.316;2023-08-06T15:19:18;36.20;27.90
80560;DHT22;70065;42.700;23.316;2023-08-06T15:21:44;36.20;27.90
80560;DHT22;70065;42.700;23.316;2023-08-06T15:24:09;36.20;28.00
80560;DHT22;70065;42.700;23.316;2023-08-06T15:26:35;36.20;27.90
80560;DHT22;70065;42.700;23.316;2023-08-06T15:29:02;36.20;28.00
80560;DHT22;70065;42.700;23.316;2023-08-06T15:31:37;36.10;28.00
80560;DHT22;70065;42.700;23.316;2023-08-06T15:34:06;36.10;28.10